sensor_id;sensor_type;location;lat;lon;timestamp;P1;durP1;ratioP1;P2;durP2;ratioP2
14892;SDS011;7538;53.626;9.906;2023-02-28T00:01:15;4.17;;;1.90;;
14892;SDS011;7538;53.626;9.906;2023-02-28T00:03:42;5.50;;;2.40;;
14892;SDS011;7538;53.626;9.906;2023-02-28T00:06:08;5.53;;;2.70;;
14892;SDS011;7538;53.626;9.906;2023-02-28T00:08:35;5.03;;;2.70;;
14892;SDS011;7538;53.626;9.906;2023-02-28T00:11:03;4.00;;;2.70;;
14892;SDS011;7538;53.626;9.906;2023-02-28T00:13:31;3.23;;;2.30;;
14892;SDS011;7538;53.626;9.906;2023-02-28T00:16:00;3.33;;;2.07;;
14892;SDS011;7538;53.626;9.906;2023-02-28T00:18:28;5.73;;;2.50;;
14892;SDS011;7538;53.626;9.906;2023-02-28T00:20:55;4.53;;;2.50;;
14892;SDS011;7538;53.626;9.906;2023-02-28T00:23:22;4.20;;;2.40;;
14892;SDS011;7538;53.626;9.906;2023-02-28T00:25:49;3.50;;;2.33;;
14892;SDS011;7538;53.626;9.906;2023-02-28T00:28:17;5.20;;;2.33;;
14892;SDS011;7538;53.626;9.906;2023-02-28T00:30:44;4.43;;;2.20;;
14892;SDS011;7538;53.626;9.906;2023-02-28T00:33:10;4.97;;;2.40;;
14892;SDS011;7538;53.626;9.906;2023-02-28T00:35:39;5.13;;;2.00;;
14892;SDS011;7538;53.626;9.906;2023-02-28T00:38:06;7.20;;;2.10;;
14892;SDS011;7538;53.626;9.906;2023-02-28T00:40:32;2.90;;;2.20;;
14892;SDS011;7538;53.626;9.906;2023-02-28T00:42:59;5.13;;;2.17;;
14892;SDS011;7538;53.626;9.906;2023-02-28T00:45:26;4.43;;;2.10;;
14892;SDS011;7538;53.626;9.906;2023-02-28T00:47:53;5.30;;;2.07;;
14892;SDS011;7538;53.626;9.906;2023-02-28T00:50:20;3.30;;;2.33;;
14892;SDS011;7538;53.626;9.906;2023-02-28T00:52:48;5.20;;;2.40;;
14892;SDS011;7538;53.626;9.906;2023-02-28T00:55:15;3.67;;;1.93;;
14892;SDS011;7538;53.626;9.906;2023-02-28T00:57:43;4.20;;;2.20;;
14892;SDS011;7538;53.626;9.906;2023-02-28T01:00:10;5.07;;;2.47;;
14892;SDS011;7538;53.626;9.906;2023-02-28T01:02:38;5.37;;;1.93;;
14892;SDS011;7538;53.626;9.906;2023-02-28T01:05:05;4.53;;;2.57;;
14892;SDS011;7538;53.626;9.906;2023-02-28T01:07:32;7.43;;;2.40;;
14892;SDS011;7538;53.626;9.906;2023-02-28T01:10:00;4.00;;;1.90;;
14892;SDS011;7538;53.626;9.906;2023-02-28T01:12:27;3.60;;;2.10;;
14892;SDS011;7538;53.626;9.906;2023-02-28T01:14:54;3.83;;;2.03;;
14892;SDS011;7538;53.626;9.906;2023-02-28T01:17:20;4.20;;;2.10;;
14892;SDS011;7538;53.626;9.906;2023-02-28T01:19:48;3.70;;;1.80;;
14892;SDS011;7538;53.626;9.906;2023-02-28T01:22:14;4.63;;;2.47;;
14892;SDS011;7538;53.626;9.906;2023-02-28T01:24:41;4.60;;;2.20;;
14892;SDS011;7538;53.626;9.906;2023-02-28T01:27:09;3.00;;;1.93;;
14892;SDS011;7538;53.626;9.906;2023-02-28T01:29:36;3.00;;;1.97;;
14892;SDS011;7538;53.626;9.906;2023-02-28T01:32:03;4.50;;;2.13;;
14892;SDS011;7538;53.626;9.906;2023-02-28T01:34:30;3.83;;;2.13;;
14892;SDS011;7538;53.626;9.906;2023-02-28T01:36:57;3.37;;;2.33;;
14892;SDS011;7538;53.626;9.906;2023-02-28T01:39:24;3.63;;;2.10;;
14892;SDS011;7538;53.626;9.906;2023-02-28T01:41:51;5.03;;;1.90;;
14892;SDS011;7538;53.626;9.906;2023-02-28T01:47:39;3.97;;;1.90;;
14892;SDS011;7538;53.626;9.906;2023-02-28T01:50:09;4.13;;;1.97;;
14892;SDS011;7538;53.626;9.906;2023-02-28T01:52:39;3.87;;;1.90;;
14892;SDS011;7538;53.626;9.906;2023-02-28T01:55:07;4.23;;;2.00;;
14892;SDS011;7538;53.626;9.906;2023-02-28T01:57:38;4.20;;;1.77;;
14892;SDS011;7538;53.626;9.906;2023-02-28T02:00:08;2.30;;;1.83;;
14892;SDS011;7538;53.626;9.906;2023-02-28T02:02:41;3.40;;;1.87;;
14892;SDS011;7538;53.626;9.906;2023-02-28T02:05:09;3.47;;;2.10;;
14892;SDS011;7538;53.626;9.906;2023-02-28T02:07:40;3.50;;;2.07;;
14892;SDS011;7538;53.626;9.906;2023-02-28T02:10:11;4.13;;;1.73;;
14892;SDS011;7538;53.626;9.906;2023-02-28T02:12:56;2.73;;;1.53;;
14892;SDS011;7538;53.626;9.906;2023-02-28T02:15:41;6.00;;;2.23;;
14892;SDS011;7538;53.626;9.906;2023-02-28T02:18:16;3.60;;;1.70;;
14892;SDS011;7538;53.626;9.906;2023-02-28T02:20:58;3.30;;;1.63;;
14892;SDS011;7538;53.626;9.906;2023-02-28T02:23:51;2.60;;;1.73;;
14892;SDS011;7538;53.626;9.906;2023-02-28T02:26:42;2.03;;;1.83;;
14892;SDS011;7538;53.626;9.906;2023-02-28T02:29:46;4.90;;;2.23;;
14892;SDS011;7538;53.626;9.906;2023-02-28T02:32:30;4.90;;;2.10;;
14892;SDS011;7538;53.626;9.906;2023-02-28T02:35:16;3.60;;;2.20;;
14892;SDS011;7538;53.626;9.906;2023-02-28T02:37:50;3.17;;;1.80;;
14892;SDS011;7538;53.626;9.906;2023-02-28T02:40:21;3.13;;;2.20;;
14892;SDS011;7538;53.626;9.906;2023-02-28T02:42:51;3.70;;;2.00;;
14892;SDS011;7538;53.626;9.906;2023-02-28T02:45:23;4.33;;;1.77;;
14892;SDS011;7538;53.626;9.906;2023-02-28T02:47:53;3.87;;;1.90;;
14892;SDS011;7538;53.626;9.906;2023-02-28T02:50:25;4.50;;;2.57;;
14892;SDS011;7538;53.626;9.906;2023-02-28T02:52:57;4.70;;;1.90;;
14892;SDS011;7538;53.626;9.906;2023-02-28T02:55:26;4.40;;;2.33;;
14892;SDS011;7538;53.626;9.906;2023-02-28T02:57:57;4.73;;;2.20;;
14892;SDS011;7538;53.626;9.906;2023-02-28T03:00:27;5.03;;;2.67;;
14892;SDS011;7538;53.626;9.906;2023-02-28T03:02:59;5.93;;;2.20;;
14892;SDS011;7538;53.626;9.906;2023-02-28T03:05:29;3.63;;;2.53;;
14892;SDS011;7538;53.626;9.906;2023-02-28T03:08:02;3.33;;;1.80;;
14892;SDS011;7538;53.626;9.906;2023-02-28T03:10:34;4.80;;;2.20;;
14892;SDS011;7538;53.626;9.906;2023-02-28T03:13:23;8.33;;;3.10;;
14892;SDS011;7538;53.626;9.906;2023-02-28T03:16:05;7.87;;;2.70;;
14892;SDS011;7538;53.626;9.906;2023-02-28T03:18:52;5.73;;;2.67;;
14892;SDS011;7538;53.626;9.906;2023-02-28T03:21:26;3.83;;;2.27;;
14892;SDS011;7538;53.626;9.906;2023-02-28T03:23:59;6.23;;;2.40;;
14892;SDS011;7538;53.626;9.906;2023-02-28T03:26:34;4.63;;;2.53;;
14892;SDS011;7538;53.626;9.906;2023-02-28T03:29:06;5.13;;;2.50;;
14892;SDS011;7538;53.626;9.906;2023-02-28T03:31:43;5.83;;;2.87;;
14892;SDS011;7538;53.626;9.906;2023-02-28T03:34:15;5.63;;;2.63;;
14892;SDS011;7538;53.626;9.906;2023-02-28T03:36:48;6.57;;;3.17;;
14892;SDS011;7538;53.626;9.906;2023-02-28T03:39:19;4.53;;;2.73;;
14892;SDS011;7538;53.626;9.906;2023-02-28T03:41:51;6.87;;;4.00;;
14892;SDS011;7538;53.626;9.906;2023-02-28T03:44:22;10.10;;;4.07;;
14892;SDS011;7538;53.626;9.906;2023-02-28T03:46:53;7.83;;;4.20;;
14892;SDS011;7538;53.626;9.906;2023-02-28T03:49:25;7.93;;;4.63;;
14892;SDS011;7538;53.626;9.906;2023-02-28T03:51:58;9.43;;;5.20;;
14892;SDS011;7538;53.626;9.906;2023-02-28T03:54:27;14.47;;;5.50;;
14892;SDS011;7538;53.626;9.906;2023-02-28T03:56:59;10.10;;;5.10;;
14892;SDS011;7538;53.626;9.906;2023-02-28T03:59:29;8.80;;;5.30;;
14892;SDS011;7538;53.626;9.906;2023-02-28T04:02:01;10.63;;;5.33;;
14892;SDS011;7538;53.626;9.906;2023-02-28T04:04:28;10.17;;;5.90;;
14892;SDS011;7538;53.626;9.906;2023-02-28T04:07:02;11.70;;;6.37;;
14892;SDS011;7538;53.626;9.906;2023-02-28T04:09:30;9.93;;;6.07;;
14892;SDS011;7538;53.626;9.906;2023-02-28T04:11:57;12.60;;;7.23;;
14892;SDS011;7538;53.626;9.906;2023-02-28T04:14:24;12.53;;;6.97;;
14892;SDS011;7538;53.626;9.906;2023-02-28T04:16:51;12.47;;;7.77;;
14892;SDS011;7538;53.626;9.906;2023-02-28T04:19:18;14.30;;;7.23;;
14892;SDS011;7538;53.626;9.906;2023-02-28T04:21:46;15.67;;;8.03;;
14892;SDS011;7538;53.626;9.906;2023-02-28T04:24:16;15.20;;;8.03;;
14892;SDS011;7538;53.626;9.906;2023-02-28T04:26:45;17.40;;;9.23;;
14892;SDS011;7538;53.626;9.906;2023-02-28T04:29:15;16.43;;;9.30;;
14892;SDS011;7538;53.626;9.906;2023-02-28T04:31:45;18.20;;;9.67;;
14892;SDS011;7538;53.626;9.906;2023-02-28T04:34:12;19.57;;;10.47;;
14892;SDS011;7538;53.626;9.906;2023-02-28T04:36:39;22.03;;;10.70;;
14892;SDS011;7538;53.626;9.906;2023-02-28T04:39:06;18.03;;;9.83;;
14892;SDS011;7538;53.626;9.906;2023-02-28T04:41:36;16.83;;;9.67;;
14892;SDS011;7538;53.626;9.906;2023-02-28T04:44:03;17.47;;;8.63;;
14892;SDS011;7538;53.626;9.906;2023-02-28T04:46:30;20.77;;;9.53;;
14892;SDS011;7538;53.626;9.906;2023-02-28T04:48:57;19.87;;;11.40;;
14892;SDS011;7538;53.626;9.906;2023-02-28T04:51:24;23.63;;;12.40;;
14892;SDS011;7538;53.626;9.906;2023-02-28T04:53:51;26.17;;;12.83;;
14892;SDS011;7538;53.626;9.906;2023-02-28T04:56:18;23.47;;;13.70;;
14892;SDS011;7538;53.626;9.906;2023-02-28T04:58:47;21.53;;;13.63;;
14892;SDS011;7538;53.626;9.906;2023-02-28T05:01:16;24.80;;;13.50;;
14892;SDS011;7538;53.626;9.906;2023-02-28T05:03:44;29.00;;;14.07;;
14892;SDS011;7538;53.626;9.906;2023-02-28T05:06:11;29.50;;;14.07;;
14892;SDS011;7538;53.626;9.906;2023-02-28T05:08:40;27.20;;;14.00;;
14892;SDS011;7538;53.626;9.906;2023-02-28T05:11:08;26.77;;;14.20;;
14892;SDS011;7538;53.626;9.906;2023-02-28T05:13:40;24.37;;;13.07;;
14892;SDS011;7538;53.626;9.906;2023-02-28T05:16:08;26.20;;;13.77;;
14892;SDS011;7538;53.626;9.906;2023-02-28T05:18:35;24.03;;;13.27;;
14892;SDS011;7538;53.626;9.906;2023-02-28T05:21:02;26.10;;;14.40;;
14892;SDS011;7538;53.626;9.906;2023-02-28T05:23:29;26.30;;;14.63;;
14892;SDS011;7538;53.626;9.906;2023-02-28T05:25:56;21.87;;;12.67;;
14892;SDS011;7538;53.626;9.906;2023-02-28T05:28:23;27.37;;;14.53;;
14892;SDS011;7538;53.626;9.906;2023-02-28T05:30:50;25.40;;;14.07;;
14892;SDS011;7538;53.626;9.906;2023-02-28T05:33:18;26.97;;;14.70;;
14892;SDS011;7538;53.626;9.906;2023-02-28T05:35:44;28.37;;;14.80;;
14892;SDS011;7538;53.626;9.906;2023-02-28T05:38:11;28.33;;;14.17;;
14892;SDS011;7538;53.626;9.906;2023-02-28T05:40:38;24.47;;;13.10;;
14892;SDS011;7538;53.626;9.906;2023-02-28T05:43:05;24.10;;;13.47;;
14892;SDS011;7538;53.626;9.906;2023-02-28T05:45:34;21.23;;;12.50;;
14892;SDS011;7538;53.626;9.906;2023-02-28T05:48:01;26.80;;;12.90;;
14892;SDS011;7538;53.626;9.906;2023-02-28T05:50:29;23.20;;;11.87;;
14892;SDS011;7538;53.626;9.906;2023-02-28T05:52:56;24.67;;;12.47;;
14892;SDS011;7538;53.626;9.906;2023-02-28T05:55:23;21.07;;;12.50;;
14892;SDS011;7538;53.626;9.906;2023-02-28T05:57:49;24.70;;;12.40;;
14892;SDS011;7538;53.626;9.906;2023-02-28T06:00:17;27.10;;;12.47;;
14892;SDS011;7538;53.626;9.906;2023-02-28T06:02:44;25.70;;;13.93;;
14892;SDS011;7538;53.626;9.906;2023-02-28T06:05:13;26.80;;;14.10;;
14892;SDS011;7538;53.626;9.906;2023-02-28T06:07:42;26.00;;;13.50;;
14892;SDS011;7538;53.626;9.906;2023-02-28T06:10:10;27.63;;;14.17;;
14892;SDS011;7538;53.626;9.906;2023-02-28T06:12:37;22.40;;;13.13;;
14892;SDS011;7538;53.626;9.906;2023-02-28T06:15:06;25.50;;;13.13;;
14892;SDS011;7538;53.626;9.906;2023-02-28T06:17:37;24.00;;;12.57;;
14892;SDS011;7538;53.626;9.906;2023-02-28T06:20:04;23.90;;;12.33;;
14892;SDS011;7538;53.626;9.906;2023-02-28T06:22:33;21.50;;;11.63;;
14892;SDS011;7538;53.626;9.906;2023-02-28T06:25:02;22.00;;;12.53;;
14892;SDS011;7538;53.626;9.906;2023-02-28T06:27:30;22.87;;;12.77;;
14892;SDS011;7538;53.626;9.906;2023-02-28T06:29:57;25.10;;;12.37;;
14892;SDS011;7538;53.626;9.906;2023-02-28T06:32:24;26.17;;;12.43;;
14892;SDS011;7538;53.626;9.906;2023-02-28T06:34:51;23.67;;;12.77;;
14892;SDS011;7538;53.626;9.906;2023-02-28T06:37:18;25.10;;;12.20;;
14892;SDS011;7538;53.626;9.906;2023-02-28T06:39:45;22.17;;;12.37;;
14892;SDS011;7538;53.626;9.906;2023-02-28T06:42:13;19.93;;;12.17;;
14892;SDS011;7538;53.626;9.906;2023-02-28T06:44:40;22.60;;;12.87;;
14892;SDS011;7538;53.626;9.906;2023-02-28T06:47:07;23.97;;;12.13;;
14892;SDS011;7538;53.626;9.906;2023-02-28T06:49:35;23.67;;;12.03;;
14892;SDS011;7538;53.626;9.906;2023-02-28T06:52:03;25.83;;;12.27;;
14892;SDS011;7538;53.626;9.906;2023-02-28T06:54:30;24.70;;;12.03;;
14892;SDS011;7538;53.626;9.906;2023-02-28T06:56:57;20.20;;;11.53;;
14892;SDS011;7538;53.626;9.906;2023-02-28T06:59:26;22.70;;;12.40;;
14892;SDS011;7538;53.626;9.906;2023-02-28T07:01:52;20.73;;;12.20;;
14892;SDS011;7538;53.626;9.906;2023-02-28T07:04:20;22.73;;;12.43;;
14892;SDS011;7538;53.626;9.906;2023-02-28T07:06:46;22.60;;;11.83;;
14892;SDS011;7538;53.626;9.906;2023-02-28T07:09:13;23.47;;;12.00;;
14892;SDS011;7538;53.626;9.906;2023-02-28T07:11:40;18.40;;;11.27;;
14892;SDS011;7538;53.626;9.906;2023-02-28T07:14:08;15.97;;;10.27;;
14892;SDS011;7538;53.626;9.906;2023-02-28T07:16:36;21.17;;;11.80;;
14892;SDS011;7538;53.626;9.906;2023-02-28T07:19:03;21.47;;;11.67;;
14892;SDS011;7538;53.626;9.906;2023-02-28T07:21:30;21.43;;;10.70;;
14892;SDS011;7538;53.626;9.906;2023-02-28T07:23:56;17.60;;;9.80;;
14892;SDS011;7538;53.626;9.906;2023-02-28T07:26:23;15.17;;;8.43;;
14892;SDS011;7538;53.626;9.906;2023-02-28T07:28:50;16.20;;;8.13;;
14892;SDS011;7538;53.626;9.906;2023-02-28T07:31:17;12.70;;;7.60;;
14892;SDS011;7538;53.626;9.906;2023-02-28T07:33:46;16.17;;;8.90;;
14892;SDS011;7538;53.626;9.906;2023-02-28T07:36:13;15.67;;;7.30;;
14892;SDS011;7538;53.626;9.906;2023-02-28T07:38:42;10.77;;;6.67;;
14892;SDS011;7538;53.626;9.906;2023-02-28T07:41:11;11.80;;;5.37;;
14892;SDS011;7538;53.626;9.906;2023-02-28T07:43:38;8.67;;;4.77;;
14892;SDS011;7538;53.626;9.906;2023-02-28T07:46:05;7.03;;;4.57;;
14892;SDS011;7538;53.626;9.906;2023-02-28T07:48:33;5.60;;;3.80;;
14892;SDS011;7538;53.626;9.906;2023-02-28T07:51:02;8.43;;;3.73;;
14892;SDS011;7538;53.626;9.906;2023-02-28T07:53:29;6.83;;;3.70;;
14892;SDS011;7538;53.626;9.906;2023-02-28T07:55:56;4.23;;;3.23;;
14892;SDS011;7538;53.626;9.906;2023-02-28T07:58:24;5.10;;;2.97;;
14892;SDS011;7538;53.626;9.906;2023-02-28T08:00:52;5.27;;;2.60;;
14892;SDS011;7538;53.626;9.906;2023-02-28T08:03:19;5.00;;;2.60;;
14892;SDS011;7538;53.626;9.906;2023-02-28T08:05:47;6.13;;;2.75;;
14892;SDS011;7538;53.626;9.906;2023-02-28T08:08:16;5.00;;;3.05;;
14892;SDS011;7538;53.626;9.906;2023-02-28T08:10:43;5.22;;;2.58;;
14892;SDS011;7538;53.626;9.906;2023-02-28T08:13:09;6.90;;;2.50;;
14892;SDS011;7538;53.626;9.906;2023-02-28T08:15:36;4.50;;;2.53;;
14892;SDS011;7538;53.626;9.906;2023-02-28T08:18:03;2.50;;;2.13;;
14892;SDS011;7538;53.626;9.906;2023-02-28T08:20:30;3.90;;;2.80;;
14892;SDS011;7538;53.626;9.906;2023-02-28T08:22:57;3.92;;;2.55;;
14892;SDS011;7538;53.626;9.906;2023-02-28T08:25:25;6.53;;;2.58;;
14892;SDS011;7538;53.626;9.906;2023-02-28T08:27:52;4.15;;;3.00;;
14892;SDS011;7538;53.626;9.906;2023-02-28T08:30:19;3.58;;;2.55;;
14892;SDS011;7538;53.626;9.906;2023-02-28T08:32:46;5.15;;;3.05;;
14892;SDS011;7538;53.626;9.906;2023-02-28T08:35:12;3.97;;;2.85;;
14892;SDS011;7538;53.626;9.906;2023-02-28T08:37:39;3.58;;;2.45;;
14892;SDS011;7538;53.626;9.906;2023-02-28T08:40:06;3.85;;;3.17;;
14892;SDS011;7538;53.626;9.906;2023-02-28T08:42:36;3.65;;;2.90;;
14892;SDS011;7538;53.626;9.906;2023-02-28T08:45:04;4.07;;;2.67;;
14892;SDS011;7538;53.626;9.906;2023-02-28T08:47:31;3.67;;;2.42;;
14892;SDS011;7538;53.626;9.906;2023-02-28T08:49:58;2.92;;;2.20;;
14892;SDS011;7538;53.626;9.906;2023-02-28T08:52:25;4.07;;;2.75;;
14892;SDS011;7538;53.626;9.906;2023-02-28T08:54:52;3.42;;;2.08;;
14892;SDS011;7538;53.626;9.906;2023-02-28T08:57:18;2.95;;;2.10;;
14892;SDS011;7538;53.626;9.906;2023-02-28T08:59:47;2.30;;;2.10;;
14892;SDS011;7538;53.626;9.906;2023-02-28T09:02:13;2.63;;;2.15;;
14892;SDS011;7538;53.626;9.906;2023-02-28T09:04:40;3.67;;;2.22;;
14892;SDS011;7538;53.626;9.906;2023-02-28T09:07:10;4.32;;;2.47;;
14892;SDS011;7538;53.626;9.906;2023-02-28T09:09:37;2.80;;;2.30;;
14892;SDS011;7538;53.626;9.906;2023-02-28T09:12:19;4.35;;;2.15;;
14892;SDS011;7538;53.626;9.906;2023-02-28T09:14:47;3.25;;;2.00;;
14892;SDS011;7538;53.626;9.906;2023-02-28T09:17:14;3.47;;;1.70;;
14892;SDS011;7538;53.626;9.906;2023-02-28T09:19:41;2.42;;;1.63;;
14892;SDS011;7538;53.626;9.906;2023-02-28T09:22:08;2.55;;;1.50;;
14892;SDS011;7538;53.626;9.906;2023-02-28T09:24:35;2.80;;;1.60;;
14892;SDS011;7538;53.626;9.906;2023-02-28T09:27:03;1.35;;;1.15;;
14892;SDS011;7538;53.626;9.906;2023-02-28T09:29:30;1.60;;;1.23;;
14892;SDS011;7538;53.626;9.906;2023-02-28T09:31:58;1.95;;;1.50;;
14892;SDS011;7538;53.626;9.906;2023-02-28T09:34:26;2.53;;;1.40;;
14892;SDS011;7538;53.626;9.906;2023-02-28T09:36:55;2.72;;;1.30;;
14892;SDS011;7538;53.626;9.906;2023-02-28T09:39:22;1.30;;;1.08;;
14892;SDS011;7538;53.626;9.906;2023-02-28T09:41:52;1.83;;;1.30;;
14892;SDS011;7538;53.626;9.906;2023-02-28T09:44:22;4.43;;;1.40;;
14892;SDS011;7538;53.626;9.906;2023-02-28T09:46:56;2.78;;;1.20;;
14892;SDS011;7538;53.626;9.906;2023-02-28T09:49:28;2.20;;;1.60;;
14892;SDS011;7538;53.626;9.906;2023-02-28T09:52:01;1.70;;;1.20;;
14892;SDS011;7538;53.626;9.906;2023-02-28T09:54:31;1.85;;;1.45;;
14892;SDS011;7538;53.626;9.906;2023-02-28T09:56:59;2.47;;;1.40;;
14892;SDS011;7538;53.626;9.906;2023-02-28T09:59:36;1.63;;;1.52;;
14892;SDS011;7538;53.626;9.906;2023-02-28T10:02:15;2.22;;;1.80;;
14892;SDS011;7538;53.626;9.906;2023-02-28T10:04:53;3.17;;;2.10;;
14892;SDS011;7538;53.626;9.906;2023-02-28T10:07:27;4.40;;;2.47;;
14892;SDS011;7538;53.626;9.906;2023-02-28T10:10:04;2.78;;;2.20;;
14892;SDS011;7538;53.626;9.906;2023-02-28T10:12:40;3.67;;;3.08;;
14892;SDS011;7538;53.626;9.906;2023-02-28T10:15:12;2.30;;;1.70;;
14892;SDS011;7538;53.626;9.906;2023-02-28T10:17:42;3.50;;;1.95;;
14892;SDS011;7538;53.626;9.906;2023-02-28T10:20:12;1.70;;;1.60;;
14892;SDS011;7538;53.626;9.906;2023-02-28T10:22:48;3.05;;;1.88;;
14892;SDS011;7538;53.626;9.906;2023-02-28T10:25:19;2.30;;;1.60;;
14892;SDS011;7538;53.626;9.906;2023-02-28T10:27:49;2.17;;;1.50;;
14892;SDS011;7538;53.626;9.906;2023-02-28T10:30:19;2.25;;;1.73;;
14892;SDS011;7538;53.626;9.906;2023-02-28T10:32:49;3.60;;;1.75;;
14892;SDS011;7538;53.626;9.906;2023-02-28T10:35:18;3.67;;;2.05;;
14892;SDS011;7538;53.626;9.906;2023-02-28T10:37:47;3.72;;;1.77;;
14892;SDS011;7538;53.626;9.906;2023-02-28T10:40:26;2.92;;;1.98;;
14892;SDS011;7538;53.626;9.906;2023-02-28T10:42:56;3.13;;;1.90;;
14892;SDS011;7538;53.626;9.906;2023-02-28T10:45:24;2.67;;;1.98;;
14892;SDS011;7538;53.626;9.906;2023-02-28T10:47:55;2.88;;;1.90;;
14892;SDS011;7538;53.626;9.906;2023-02-28T10:50:28;2.08;;;1.70;;
14892;SDS011;7538;53.626;9.906;2023-02-28T10:53:05;1.50;;;1.40;;
14892;SDS011;7538;53.626;9.906;2023-02-28T10:55:41;2.45;;;1.50;;
14892;SDS011;7538;53.626;9.906;2023-02-28T10:58:18;1.65;;;1.55;;
14892;SDS011;7538;53.626;9.906;2023-02-28T11:00:47;3.28;;;1.83;;
14892;SDS011;7538;53.626;9.906;2023-02-28T11:03:24;2.25;;;1.65;;
14892;SDS011;7538;53.626;9.906;2023-02-28T11:05:55;2.80;;;1.80;;
14892;SDS011;7538;53.626;9.906;2023-02-28T11:08:22;2.65;;;1.67;;
14892;SDS011;7538;53.626;9.906;2023-02-28T11:10:53;2.60;;;1.80;;
14892;SDS011;7538;53.626;9.906;2023-02-28T11:13:26;1.90;;;1.40;;
14892;SDS011;7538;53.626;9.906;2023-02-28T11:15:58;3.83;;;1.60;;
14892;SDS011;7538;53.626;9.906;2023-02-28T11:18:29;2.97;;;2.00;;
14892;SDS011;7538;53.626;9.906;2023-02-28T11:20:58;2.83;;;1.63;;
14892;SDS011;7538;53.626;9.906;2023-02-28T11:23:27;3.20;;;1.67;;
14892;SDS011;7538;53.626;9.906;2023-02-28T11:25:57;5.43;;;2.10;;
14892;SDS011;7538;53.626;9.906;2023-02-28T11:28:27;2.47;;;1.90;;
14892;SDS011;7538;53.626;9.906;2023-02-28T11:31:06;3.90;;;2.00;;
14892;SDS011;7538;53.626;9.906;2023-02-28T11:33:46;3.07;;;1.67;;
14892;SDS011;7538;53.626;9.906;2023-02-28T11:36:16;4.63;;;2.13;;
14892;SDS011;7538;53.626;9.906;2023-02-28T11:38:46;2.63;;;2.07;;
14892;SDS011;7538;53.626;9.906;2023-02-28T11:44:10;2.47;;;1.90;;
14892;SDS011;7538;53.626;9.906;2023-02-28T11:46:51;2.30;;;1.63;;
14892;SDS011;7538;53.626;9.906;2023-02-28T11:49:27;2.50;;;1.70;;
14892;SDS011;7538;53.626;9.906;2023-02-28T11:52:01;3.63;;;1.90;;
14892;SDS011;7538;53.626;9.906;2023-02-28T11:54:35;4.17;;;1.50;;
14892;SDS011;7538;53.626;9.906;2023-02-28T11:57:24;3.70;;;1.60;;
14892;SDS011;7538;53.626;9.906;2023-02-28T12:00:07;1.90;;;1.47;;
14892;SDS011;7538;53.626;9.906;2023-02-28T12:02:50;2.07;;;1.50;;
14892;SDS011;7538;53.626;9.906;2023-02-28T12:05:29;2.20;;;1.63;;
14892;SDS011;7538;53.626;9.906;2023-02-28T12:08:02;3.03;;;1.60;;
14892;SDS011;7538;53.626;9.906;2023-02-28T12:10:42;2.23;;;1.80;;
14892;SDS011;7538;53.626;9.906;2023-02-28T12:13:16;2.83;;;1.63;;
14892;SDS011;7538;53.626;9.906;2023-02-28T12:19:07;2.50;;;1.83;;
14892;SDS011;7538;53.626;9.906;2023-02-28T12:21:51;4.73;;;1.60;;
14892;SDS011;7538;53.626;9.906;2023-02-28T12:24:39;4.50;;;2.27;;
14892;SDS011;7538;53.626;9.906;2023-02-28T12:27:19;3.80;;;1.40;;
14892;SDS011;7538;53.626;9.906;2023-02-28T12:29:49;2.03;;;1.83;;
14892;SDS011;7538;53.626;9.906;2023-02-28T12:32:21;2.43;;;2.07;;
14892;SDS011;7538;53.626;9.906;2023-02-28T12:34:54;2.20;;;1.77;;
14892;SDS011;7538;53.626;9.906;2023-02-28T12:37:27;3.00;;;1.70;;
14892;SDS011;7538;53.626;9.906;2023-02-28T12:40:00;3.73;;;1.70;;
14892;SDS011;7538;53.626;9.906;2023-02-28T12:42:31;2.10;;;1.60;;
14892;SDS011;7538;53.626;9.906;2023-02-28T12:45:03;2.73;;;1.70;;
14892;SDS011;7538;53.626;9.906;2023-02-28T12:47:34;3.37;;;1.70;;
14892;SDS011;7538;53.626;9.906;2023-02-28T12:50:02;4.00;;;1.93;;
14892;SDS011;7538;53.626;9.906;2023-02-28T12:52:35;2.60;;;1.63;;
14892;SDS011;7538;53.626;9.906;2023-02-28T12:55:07;2.57;;;1.70;;
14892;SDS011;7538;53.626;9.906;2023-02-28T12:57:40;2.07;;;1.70;;
14892;SDS011;7538;53.626;9.906;2023-02-28T13:00:15;2.67;;;1.80;;
14892;SDS011;7538;53.626;9.906;2023-02-28T13:02:49;2.83;;;1.60;;
14892;SDS011;7538;53.626;9.906;2023-02-28T13:05:39;4.33;;;1.80;;
14892;SDS011;7538;53.626;9.906;2023-02-28T13:08:33;2.27;;;1.67;;
14892;SDS011;7538;53.626;9.906;2023-02-28T13:11:25;4.30;;;1.97;;
14892;SDS011;7538;53.626;9.906;2023-02-28T13:13:59;3.57;;;1.83;;
14892;SDS011;7538;53.626;9.906;2023-02-28T13:16:28;2.77;;;1.70;;
14892;SDS011;7538;53.626;9.906;2023-02-28T13:19:15;4.03;;;1.73;;
14892;SDS011;7538;53.626;9.906;2023-02-28T13:21:45;5.07;;;2.43;;
14892;SDS011;7538;53.626;9.906;2023-02-28T13:24:35;2.73;;;1.57;;
14892;SDS011;7538;53.626;9.906;2023-02-28T13:30:00;2.37;;;2.00;;
14892;SDS011;7538;53.626;9.906;2023-02-28T13:32:35;2.70;;;2.10;;
14892;SDS011;7538;53.626;9.906;2023-02-28T13:35:14;3.43;;;2.03;;
14892;SDS011;7538;53.626;9.906;2023-02-28T13:44:10;2.50;;;1.77;;
14892;SDS011;7538;53.626;9.906;2023-02-28T13:49:38;5.17;;;1.87;;
14892;SDS011;7538;53.626;9.906;2023-02-28T13:52:07;3.00;;;1.90;;
14892;SDS011;7538;53.626;9.906;2023-02-28T13:54:44;3.57;;;2.00;;
14892;SDS011;7538;53.626;9.906;2023-02-28T13:57:33;4.60;;;2.30;;
14892;SDS011;7538;53.626;9.906;2023-02-28T14:00:17;6.70;;;2.40;;
14892;SDS011;7538;53.626;9.906;2023-02-28T14:05:45;3.00;;;2.03;;
14892;SDS011;7538;53.626;9.906;2023-02-28T14:08:13;4.10;;;2.20;;
14892;SDS011;7538;53.626;9.906;2023-02-28T14:10:44;2.60;;;2.03;;
14892;SDS011;7538;53.626;9.906;2023-02-28T14:16:14;2.43;;;1.90;;
14892;SDS011;7538;53.626;9.906;2023-02-28T14:18:47;2.83;;;1.93;;
14892;SDS011;7538;53.626;9.906;2023-02-28T14:21:19;4.37;;;2.10;;
14892;SDS011;7538;53.626;9.906;2023-02-28T14:24:01;2.93;;;1.93;;
14892;SDS011;7538;53.626;9.906;2023-02-28T14:26:46;3.10;;;1.80;;
14892;SDS011;7538;53.626;9.906;2023-02-28T14:29:43;4.27;;;2.17;;
14892;SDS011;7538;53.626;9.906;2023-02-28T14:32:41;3.37;;;1.70;;
14892;SDS011;7538;53.626;9.906;2023-02-28T14:35:15;1.73;;;1.60;;
14892;SDS011;7538;53.626;9.906;2023-02-28T14:38:04;4.60;;;2.20;;
14892;SDS011;7538;53.626;9.906;2023-02-28T14:40:32;3.20;;;1.97;;
14892;SDS011;7538;53.626;9.906;2023-02-28T14:43:01;3.30;;;1.90;;
14892;SDS011;7538;53.626;9.906;2023-02-28T14:45:29;3.20;;;2.20;;
14892;SDS011;7538;53.626;9.906;2023-02-28T14:48:00;2.53;;;2.13;;
14892;SDS011;7538;53.626;9.906;2023-02-28T14:50:29;2.70;;;1.80;;
14892;SDS011;7538;53.626;9.906;2023-02-28T14:52:58;3.83;;;1.93;;
14892;SDS011;7538;53.626;9.906;2023-02-28T14:55:26;2.97;;;1.90;;
14892;SDS011;7538;53.626;9.906;2023-02-28T14:57:55;2.57;;;1.70;;
14892;SDS011;7538;53.626;9.906;2023-02-28T15:00:28;2.37;;;1.77;;
14892;SDS011;7538;53.626;9.906;2023-02-28T15:02:59;3.77;;;2.13;;
14892;SDS011;7538;53.626;9.906;2023-02-28T15:05:50;2.70;;;1.80;;
14892;SDS011;7538;53.626;9.906;2023-02-28T15:08:18;3.97;;;2.20;;
14892;SDS011;7538;53.626;9.906;2023-02-28T15:10:50;2.77;;;2.03;;
14892;SDS011;7538;53.626;9.906;2023-02-28T15:13:19;3.80;;;1.70;;
14892;SDS011;7538;53.626;9.906;2023-02-28T15:15:47;4.03;;;1.60;;
14892;SDS011;7538;53.626;9.906;2023-02-28T15:18:23;2.73;;;2.00;;
14892;SDS011;7538;53.626;9.906;2023-02-28T15:23:25;3.90;;;1.60;;
14892;SDS011;7538;53.626;9.906;2023-02-28T15:25:51;3.40;;;1.83;;
14892;SDS011;7538;53.626;9.906;2023-02-28T15:28:20;3.10;;;1.97;;
14892;SDS011;7538;53.626;9.906;2023-02-28T15:30:50;3.03;;;1.97;;
14892;SDS011;7538;53.626;9.906;2023-02-28T15:33:23;2.77;;;2.00;;
14892;SDS011;7538;53.626;9.906;2023-02-28T15:35:51;3.03;;;1.90;;
14892;SDS011;7538;53.626;9.906;2023-02-28T15:38:32;3.07;;;2.10;;
14892;SDS011;7538;53.626;9.906;2023-02-28T15:41:00;4.30;;;1.97;;
14892;SDS011;7538;53.626;9.906;2023-02-28T15:43:28;3.50;;;2.27;;
14892;SDS011;7538;53.626;9.906;2023-02-28T15:45:56;3.30;;;2.00;;
14892;SDS011;7538;53.626;9.906;2023-02-28T15:48:27;2.83;;;2.10;;